Time;durP1;ratioP1;P1;durP2;ratioP2;P2;SDS_P1;SDS_P2;PMS_P1;PMS_P2;Temp;Humidity;BMP_temperature;BMP_pressure;BME280_temperature;BME280_humidity;BME280_pressure;Samples;Min_cycle;Max_cycle;Signal;HPM_P1;HPM_P2
2023/12/07 00:01:37;;;;;;;364.92;37.50;;;;;;;2.42;100.00;102011.63;5212116;28;20107;-73
2023/12/07 00:04:07;;;;;;;357.90;39.45;;;;;;;2.35;100.00;102008.44;5208389;28;20109;-73
2023/12/07 00:06:38;;;;;;;271.95;37.38;;;;;;;2.41;100.00;102009.91;5214524;28;20050;-73
2023/12/07 00:09:08;;;;;;;318.35;36.08;;;;;;;2.40;100.00;102013.50;5208735;28;20029;-73
2023/12/07 00:11:39;;;;;;;173.50;27.15;;;;;;;2.38;100.00;102008.28;5217282;28;20509;-73
2023/12/07 00:14:09;;;;;;;329.88;34.30;;;;;;;2.42;100.00;102007.19;5209929;28;20033;-73
2023/12/07 00:16:40;;;;;;;211.35;28.40;;;;;;;2.26;100.00;102006.31;5214517;28;20429;-73
2023/12/07 00:19:10;;;;;;;366.75;35.78;;;;;;;2.27;100.00;102008.88;5213833;28;20040;-73
2023/12/07 00:21:41;;;;;;;325.20;31.95;;;;;;;2.19;100.00;102004.94;5211448;28;20105;-73
2023/12/07 00:24:11;;;;;;;232.52;31.17;;;;;;;2.24;100.00;102005.53;5215424;28;20083;-73
2023/12/07 00:26:41;;;;;;;298.17;30.40;;;;;;;2.24;100.00;101993.16;5213897;28;20025;-73
2023/12/07 00:29:12;;;;;;;165.15;25.88;;;;;;;2.30;100.00;101991.97;5213335;28;20424;-73
2023/12/07 00:31:43;;;;;;;190.75;25.20;;;;;;;2.25;100.00;101989.56;5213696;28;20055;-73
2023/12/07 00:34:14;;;;;;;208.95;28.63;;;;;;;2.31;100.00;101985.75;5211524;28;20038;-73
2023/12/07 00:36:44;;;;;;;327.63;37.28;;;;;;;2.20;100.00;101986.31;5208944;28;20040;-73
2023/12/07 00:39:16;;;;;;;287.30;31.60;;;;;;;2.15;100.00;101985.72;5206933;28;20025;-73
2023/12/07 00:41:47;;;;;;;117.63;22.58;;;;;;;2.21;100.00;101993.34;5215377;28;20040;-73
2023/12/07 00:44:18;;;;;;;417.98;37.22;;;;;;;2.18;100.00;102003.25;5211516;28;20079;-73
2023/12/07 00:46:49;;;;;;;384.95;33.72;;;;;;;2.24;100.00;101993.16;5213456;28;20031;-73
2023/12/07 00:49:19;;;;;;;198.98;24.58;;;;;;;2.25;100.00;102008.09;5210173;28;20028;-73
2023/12/07 00:51:50;;;;;;;144.65;24.23;;;;;;;2.28;100.00;102000.00;5212745;28;20033;-73
2023/12/07 00:54:20;;;;;;;349.02;36.33;;;;;;;2.29;100.00;102003.50;5212280;28;20029;-73
2023/12/07 00:56:51;;;;;;;346.40;33.88;;;;;;;2.39;100.00;102007.34;5207820;28;20028;-73
2023/12/07 00:59:21;;;;;;;195.05;26.95;;;;;;;2.41;100.00;101996.66;5211678;28;20506;-73
2023/12/07 01:01:52;;;;;;;328.17;33.67;;;;;;;2.32;100.00;101990.94;5211739;28;20094;-73
2023/12/07 01:04:22;;;;;;;270.40;28.73;;;;;;;2.35;100.00;101992.56;5210727;28;20494;-73
2023/12/07 01:06:53;;;;;;;372.98;37.25;;;;;;;2.38;100.00;101983.59;5214299;28;20029;-73
2023/12/07 01:09:23;;;;;;;271.92;30.58;;;;;;;2.32;100.00;101990.09;5213060;28;20021;-73
2023/12/07 01:11:54;;;;;;;181.02;27.77;;;;;;;2.39;100.00;101986.16;5211828;28;20030;-73
2023/12/07 01:14:25;;;;;;;293.25;32.30;;;;;;;2.48;100.00;101996.25;5215086;28;20025;-73
2023/12/07 01:16:55;;;;;;;225.20;29.25;;;;;;;2.53;100.00;101998.63;5210139;28;20112;-73
2023/12/07 01:19:26;;;;;;;222.63;29.73;;;;;;;2.55;100.00;101994.09;5210933;28;20063;-73
2023/12/07 01:21:56;;;;;;;165.80;27.27;;;;;;;2.58;100.00;102001.88;5202863;28;20921;-73
2023/12/07 01:24:27;;;;;;;244.55;29.35;;;;;;;2.53;100.00;101991.53;5212213;28;20086;-73
2023/12/07 01:26:58;;;;;;;226.60;29.33;;;;;;;2.56;100.00;101996.69;5206295;28;20495;-73
2023/12/07 01:29:28;;;;;;;207.88;29.40;;;;;;;2.59;100.00;101992.97;5203820;28;20307;-73
2023/12/07 01:31:59;;;;;;;176.10;27.45;;;;;;;2.64;100.00;101987.44;5206037;28;20024;-73
2023/12/07 01:34:29;;;;;;;235.38;32.40;;;;;;;2.68;100.00;101987.16;5209809;28;20494;-73
2023/12/07 01:37:00;;;;;;;188.55;31.15;;;;;;;2.75;100.00;101983.22;5211373;28;20443;-73
2023/12/07 01:39:31;;;;;;;206.07;29.30;;;;;;;2.76;100.00;101974.34;5212147;28;20028;-73
2023/12/07 01:42:01;;;;;;;336.60;37.92;;;;;;;2.75;100.00;101980.56;5212485;28;20441;-73
2023/12/07 01:44:32;;;;;;;248.02;35.30;;;;;;;2.70;100.00;101989.72;5212849;28;20082;-73
2023/12/07 01:47:03;;;;;;;163.07;29.08;;;;;;;2.74;100.00;101992.09;5209088;28;20095;-73
2023/12/07 01:49:35;;;;;;;212.00;27.73;;;;;;;2.80;100.00;101993.56;5207097;28;20394;-73
2023/12/07 01:52:07;;;;;;;225.55;30.77;;;;;;;2.79;100.00;101989.19;5208356;28;20039;-73
2023/12/07 01:54:38;;;;;;;304.15;33.40;;;;;;;2.72;100.00;101987.84;5215279;28;20044;-74
2023/12/07 01:57:09;;;;;;;169.65;26.60;;;;;;;2.75;100.00;101998.25;5207714;28;20028;-73
2023/12/07 01:59:40;;;;;;;225.30;30.65;;;;;;;2.81;100.00;101995.25;5209692;28;20029;-73
2023/12/07 02:02:10;;;;;;;127.80;27.88;;;;;;;2.81;100.00;101982.88;5211487;28;20025;-73
2023/12/07 02:04:41;;;;;;;170.50;31.50;;;;;;;2.90;100.00;101988.56;5206893;28;20102;-73
2023/12/07 02:07:13;;;;;;;229.00;32.90;;;;;;;2.84;100.00;101982.69;5211785;28;20035;-73
2023/12/07 02:09:44;;;;;;;287.50;34.55;;;;;;;2.77;100.00;101988.44;5210057;28;20029;-73
2023/12/07 02:12:14;;;;;;;414.33;44.10;;;;;;;2.81;100.00;101985.53;5210481;28;20469;-73
2023/12/07 02:14:45;;;;;;;169.88;29.30;;;;;;;2.81;100.00;101982.88;5213586;28;20040;-73
2023/12/07 02:17:28;;;;;;;201.60;28.20;;;;;;;2.87;100.00;101983.47;5209870;28;20029;-73
2023/12/07 02:20:10;;;;;;;191.57;28.85;;;;;;;2.85;100.00;101988.84;5206707;28;20504;-73
2023/12/07 02:22:50;;;;;;;172.32;26.98;;;;;;;2.75;100.00;101985.00;5202134;28;20021;-73
2023/12/07 02:25:29;;;;;;;130.55;24.83;;;;;;;2.68;100.00;101986.31;5205860;28;20112;-73
2023/12/07 02:27:59;;;;;;;136.85;26.17;;;;;;;2.66;100.00;101986.41;5201780;28;20116;-73
2023/12/07 02:30:30;;;;;;;151.25;26.05;;;;;;;2.75;100.00;101988.50;5211756;28;20025;-73
2023/12/07 02:33:00;;;;;;;136.15;28.52;;;;;;;2.80;100.00;101988.25;5205557;28;20022;-73
2023/12/07 02:35:31;;;;;;;129.00;25.75;;;;;;;2.79;100.00;101986.53;5206305;28;20164;-73
2023/12/07 02:38:02;;;;;;;147.75;28.80;;;;;;;2.70;100.00;101987.91;5201406;28;20389;-73
2023/12/07 02:40:34;;;;;;;137.75;25.10;;;;;;;2.63;100.00;101989.22;5209909;28;20029;-73
2023/12/07 02:43:05;;;;;;;131.65;25.13;;;;;;;2.70;100.00;101985.28;5201062;28;20029;-73
2023/12/07 02:45:36;;;;;;;132.40;24.48;;;;;;;2.75;100.00;101996.47;5209578;28;20036;-74
2023/12/07 02:48:07;;;;;;;133.45;26.60;;;;;;;2.79;100.00;101999.81;5201668;28;20026;-74
2023/12/07 02:50:38;;;;;;;124.95;25.88;;;;;;;2.84;100.00;102000.38;5208616;28;20116;-73
2023/12/07 02:53:08;;;;;;;134.85;26.67;;;;;;;2.68;100.00;101997.75;5210329;28;20403;-73
2023/12/07 02:55:39;;;;;;;136.00;25.75;;;;;;;2.80;100.00;101997.06;5206366;28;20444;-73
2023/12/07 02:58:09;;;;;;;134.38;25.88;;;;;;;2.88;100.00;101990.47;5209134;28;20033;-73
2023/12/07 03:00:46;;;;;;;138.90;27.42;;;;;;;2.90;100.00;101993.88;5211010;28;20094;-73
2023/12/07 03:03:16;;;;;;;141.65;28.38;;;;;;;2.81;100.00;101985.53;5206964;28;20425;-73
2023/12/07 03:05:47;;;;;;;146.55;27.48;;;;;;;2.88;100.00;101987.81;5203594;28;20026;-72
2023/12/07 03:08:18;;;;;;;142.52;28.77;;;;;;;2.83;100.00;101980.13;5210145;28;20056;-72
2023/12/07 03:10:53;;;;;;;148.00;27.05;;;;;;;2.74;100.00;101970.91;5209767;28;20108;-72
2023/12/07 03:13:24;;;;;;;144.77;27.45;;;;;;;2.75;100.00;101972.59;5210430;28;20468;-72
2023/12/07 03:15:55;;;;;;;168.73;28.35;;;;;;;2.85;100.00;101978.25;5211304;28;20506;-72
2023/12/07 03:18:25;;;;;;;144.40;27.75;;;;;;;2.84;100.00;101981.84;5210292;28;20545;-72
2023/12/07 03:20:56;;;;;;;157.90;29.15;;;;;;;2.84;100.00;101979.19;5210668;28;20051;-72
2023/12/07 03:23:26;;;;;;;154.30;27.55;;;;;;;2.86;100.00;101985.25;5208198;28;20112;-72
2023/12/07 03:25:57;;;;;;;170.75;30.45;;;;;;;2.86;100.00;101985.25;5209411;28;20025;-72
2023/12/07 03:28:28;;;;;;;173.23;29.80;;;;;;;2.96;100.00;101988.22;5212450;28;20021;-72
2023/12/07 03:30:58;;;;;;;187.02;32.17;;;;;;;2.95;100.00;101994.47;5207228;28;20029;-72
2023/12/07 03:33:29;;;;;;;200.35;34.25;;;;;;;3.03;100.00;101997.53;5208365;28;20024;-72
2023/12/07 03:36:11;;;;;;;178.60;32.40;;;;;;;3.03;100.00;101986.94;5205525;28;20021;-72
2023/12/07 03:38:42;;;;;;;158.65;31.77;;;;;;;3.00;100.00;101985.28;5207300;28;20116;-72
2023/12/07 03:41:13;;;;;;;139.73;29.45;;;;;;;2.95;100.00;101995.31;5210203;28;20112;-72
2023/12/07 03:43:44;;;;;;;140.52;30.45;;;;;;;2.97;100.00;101998.75;5209400;28;20071;-72
2023/12/07 03:46:14;;;;;;;142.27;31.05;;;;;;;3.10;100.00;101998.88;5213302;28;20031;-73
2023/12/07 03:48:45;;;;;;;148.25;31.33;;;;;;;3.10;100.00;101999.72;5211947;28;20021;-72
2023/12/07 03:51:16;;;;;;;147.18;29.88;;;;;;;3.06;100.00;101995.56;5210690;28;20040;-72
2023/12/07 03:53:46;;;;;;;133.75;28.98;;;;;;;3.05;100.00;102001.78;5204547;28;20441;-72
2023/12/07 03:56:28;;;;;;;136.77;32.30;;;;;;;3.14;100.00;102011.00;5207206;28;20029;-72
2023/12/07 03:58:59;;;;;;;113.63;27.25;;;;;;;3.15;100.00;102012.72;5204942;28;20030;-72
2023/12/07 04:01:29;;;;;;;119.60;27.52;;;;;;;3.07;100.00;102014.97;5212207;28;20388;-72
2023/12/07 04:04:00;;;;;;;119.65;28.17;;;;;;;3.07;100.00;102012.31;5213489;28;20037;-72
2023/12/07 04:06:31;;;;;;;104.70;26.15;;;;;;;3.01;100.00;102010.88;5212250;28;20364;-72
2023/12/07 04:09:02;;;;;;;109.22;26.52;;;;;;;3.04;100.00;102008.03;5204581;28;20026;-73
2023/12/07 04:11:33;;;;;;;115.50;27.60;;;;;;;3.06;100.00;102002.63;5204604;28;20384;-73
2023/12/07 04:14:03;;;;;;;113.20;28.95;;;;;;;3.10;100.00;102009.47;5208398;28;20017;-72
2023/12/07 04:16:34;;;;;;;110.70;28.05;;;;;;;3.16;100.00;102013.56;5208583;28;20025;-72
2023/12/07 04:19:04;;;;;;;116.57;27.48;;;;;;;3.16;100.00;102006.47;5213425;28;20041;-72
2023/12/07 04:21:35;;;;;;;103.68;25.08;;;;;;;3.07;100.00;101999.91;5208464;28;20368;-72
2023/12/07 04:24:05;;;;;;;96.35;25.02;;;;;;;3.10;100.00;102006.81;5209241;28;20453;-72
2023/12/07 04:26:36;;;;;;;113.55;25.75;;;;;;;3.14;100.00;102011.00;5206851;28;20035;-73
2023/12/07 04:29:06;;;;;;;90.75;24.70;;;;;;;3.14;100.00;102002.22;5212966;28;20074;-73
2023/12/07 04:31:37;;;;;;;97.15;25.75;;;;;;;3.11;100.00;101984.66;5206689;28;20033;-73
2023/12/07 04:34:08;;;;;;;91.65;23.67;;;;;;;3.06;100.00;101984.97;5211473;28;20021;-72
2023/12/07 04:36:38;;;;;;;80.68;24.10;;;;;;;2.96;100.00;101990.88;5206114;28;20029;-72
2023/12/07 04:39:09;;;;;;;87.60;24.17;;;;;;;3.03;100.00;101993.09;5204798;28;20070;-72
2023/12/07 04:41:40;;;;;;;97.63;26.17;;;;;;;3.10;100.00;101993.56;5207828;28;20025;-72
2023/12/07 04:44:10;;;;;;;97.25;24.65;;;;;;;3.17;100.00;101996.72;5204016;28;20030;-71
2023/12/07 04:46:42;;;;;;;89.03;23.92;;;;;;;3.11;100.00;101992.63;5204679;28;20029;-72
2023/12/07 04:49:12;;;;;;;82.30;22.95;;;;;;;2.98;100.00;101983.69;5203321;28;20017;-71
2023/12/07 04:51:46;;;;;;;81.03;22.95;;;;;;;2.99;100.00;101980.94;5205430;28;20102;-71
2023/12/07 04:54:17;;;;;;;75.85;22.80;;;;;;;3.03;100.00;101985.13;5207577;28;20032;-71
2023/12/07 04:56:47;;;;;;;72.70;21.30;;;;;;;3.14;100.00;101984.50;5202902;28;20029;-71
2023/12/07 04:59:18;;;;;;;68.90;21.73;;;;;;;3.11;100.00;101974.06;5203700;28;20079;-71
2023/12/07 05:01:48;;;;;;;76.28;23.23;;;;;;;3.22;100.00;101971.66;5209693;28;20025;-71
2023/12/07 05:04:19;;;;;;;80.63;23.20;;;;;;;3.17;100.00;101976.38;5206269;28;20021;-71
2023/12/07 05:06:49;;;;;;;74.18;22.27;;;;;;;3.16;100.00;101979.94;5207860;28;20404;-71
2023/12/07 05:09:21;;;;;;;63.17;20.10;;;;;;;3.14;100.00;101978.34;5212217;28;20074;-71
2023/12/07 05:11:52;;;;;;;65.93;20.60;;;;;;;3.08;100.00;101977.75;5207040;28;20480;-71
2023/12/07 05:14:23;;;;;;;61.40;19.92;;;;;;;3.14;100.00;101970.38;5204831;28;20075;-72
2023/12/07 05:16:55;;;;;;;72.85;20.83;;;;;;;3.20;100.00;101962.91;5209188;28;20021;-72
2023/12/07 05:19:25;;;;;;;74.28;21.55;;;;;;;3.23;100.00;101962.75;5207378;28;20032;-72
2023/12/07 05:21:56;;;;;;;73.47;23.95;;;;;;;3.24;100.00;101953.84;5207284;28;20492;-71
2023/12/07 05:24:27;;;;;;;66.47;22.27;;;;;;;3.13;100.00;101961.59;5207559;28;20017;-72
2023/12/07 05:26:58;;;;;;;76.57;22.48;;;;;;;3.21;100.00;101964.59;5207254;28;20029;-71
2023/12/07 05:29:28;;;;;;;65.55;22.40;;;;;;;3.15;100.00;101967.63;5210195;28;21392;-71
2023/12/07 05:31:59;;;;;;;65.65;21.58;;;;;;;3.23;100.00;101953.94;5206397;28;20036;-71
2023/12/07 05:34:29;;;;;;;80.15;23.55;;;;;;;3.17;100.00;101957.81;5211801;28;20033;-71
2023/12/07 05:37:00;;;;;;;71.53;23.05;;;;;;;3.10;100.00;101949.34;5208120;28;20472;-71
2023/12/07 05:39:30;;;;;;;64.30;22.75;;;;;;;3.18;100.00;101950.69;5202984;28;20026;-71
2023/12/07 05:42:00;;;;;;;74.75;24.58;;;;;;;3.08;100.00;101947.75;5209870;28;20104;-71
2023/12/07 05:44:31;;;;;;;70.78;23.30;;;;;;;3.04;100.00;101935.59;5207218;28;20091;-72
2023/12/07 05:47:02;;;;;;;65.85;23.20;;;;;;;3.05;100.00;101932.84;5208501;28;20025;-71
2023/12/07 05:49:32;;;;;;;64.03;21.67;;;;;;;2.95;100.00;101930.84;5203299;28;20041;-71
2023/12/07 05:52:03;;;;;;;61.85;20.58;;;;;;;2.96;100.00;101925.47;5206207;28;20039;-71
2023/12/07 05:54:34;;;;;;;69.57;23.58;;;;;;;2.99;100.00;101932.38;5210033;28;20040;-72
2023/12/07 05:57:04;;;;;;;64.00;21.77;;;;;;;3.06;100.00;101923.97;5206883;28;20029;-71
2023/12/07 05:59:38;;;;;;;61.67;21.65;;;;;;;3.04;100.00;101925.84;5205451;28;20059;-72
2023/12/07 06:02:09;;;;;;;55.53;19.50;;;;;;;2.98;100.00;101928.03;5206838;28;20025;-72
2023/12/07 06:04:40;;;;;;;53.95;18.27;;;;;;;2.88;100.00;101926.88;5202062;28;20099;-72
2023/12/07 06:07:12;;;;;;;50.53;17.48;;;;;;;2.97;100.00;101923.66;5207914;28;20025;-71
2023/12/07 06:09:42;;;;;;;53.17;19.38;;;;;;;2.99;100.00;101916.47;5203589;28;20026;-71
2023/12/07 06:12:13;;;;;;;49.83;18.58;;;;;;;3.02;100.00;101922.44;5204049;28;20031;-72
2023/12/07 06:14:43;;;;;;;51.78;17.20;;;;;;;3.05;100.00;101910.78;5203427;28;20083;-71
2023/12/07 06:17:14;;;;;;;48.10;19.27;;;;;;;3.09;100.00;101918.47;5205569;28;20021;-72
2023/12/07 06:19:45;;;;;;;56.10;18.73;;;;;;;3.08;100.00;101916.78;5203567;28;20017;-71
2023/12/07 06:22:15;;;;;;;41.90;16.63;;;;;;;3.06;100.00;101915.16;5204491;28;20380;-71
2023/12/07 06:24:46;;;;;;;44.88;16.55;;;;;;;3.10;100.00;101919.31;5201828;28;20063;-71
2023/12/07 06:27:18;;;;;;;44.50;17.13;;;;;;;3.08;100.00;101910.63;5203289;28;20028;-71
2023/12/07 06:29:48;;;;;;;42.53;16.23;;;;;;;3.03;100.00;101913.56;5203461;28;20270;-71
2023/12/07 06:32:19;;;;;;;45.17;15.52;;;;;;;3.03;100.00;101912.69;5204619;28;20029;-71
2023/12/07 06:34:49;;;;;;;39.83;16.73;;;;;;;3.03;100.00;101907.41;5202894;28;20108;-72
2023/12/07 06:37:20;;;;;;;42.15;15.00;;;;;;;3.06;100.00;101904.53;5193635;28;20440;-72
2023/12/07 06:39:51;;;;;;;38.92;15.15;;;;;;;3.03;100.00;101908.25;5201788;28;20501;-71
2023/12/07 06:42:21;;;;;;;37.10;15.40;;;;;;;3.03;100.00;101902.09;5205923;28;20029;-72
2023/12/07 06:44:52;;;;;;;38.25;15.27;;;;;;;3.14;100.00;101898.78;5204275;28;20029;-74
2023/12/07 06:47:23;;;;;;;36.55;14.32;;;;;;;3.10;100.00;101900.75;5204714;28;20036;-71
2023/12/07 06:49:54;;;;;;;41.33;15.18;;;;;;;3.17;100.00;101899.47;5209353;28;20021;-72
2023/12/07 06:52:24;;;;;;;40.03;15.55;;;;;;;3.14;100.00;101904.09;5205279;28;20037;-71
2023/12/07 06:54:55;;;;;;;38.88;15.88;;;;;;;3.14;100.00;101915.56;5201425;28;20428;-71
2023/12/07 06:57:25;;;;;;;43.20;15.57;;;;;;;3.11;100.00;101919.25;5205007;28;20025;-72
2023/12/07 06:59:56;;;;;;;35.03;14.18;;;;;;;3.07;100.00;101924.84;5205812;28;20400;-71
2023/12/07 07:02:26;;;;;;;37.95;14.52;;;;;;;3.13;100.00;101915.66;5211943;28;20040;-71
2023/12/07 07:04:57;;;;;;;37.38;14.55;;;;;;;3.11;100.00;101913.06;5203212;28;20052;-72
2023/12/07 07:07:30;;;;;;;41.22;16.10;;;;;;;3.07;100.00;101919.53;5210278;28;20024;-71
2023/12/07 07:10:01;;;;;;;33.17;13.77;;;;;;;2.95;100.00;101910.50;5204467;28;20186;-71
2023/12/07 07:12:32;;;;;;;38.92;14.40;;;;;;;2.84;100.00;101902.31;5205757;28;20498;-71
2023/12/07 07:15:02;;;;;;;44.58;16.20;;;;;;;2.79;100.00;101904.41;5202170;28;20021;-71
2023/12/07 07:17:35;;;;;;;37.85;14.93;;;;;;;2.69;100.00;101904.06;5206656;28;20596;-71
2023/12/07 07:20:06;;;;;;;41.97;14.65;;;;;;;2.67;100.00;101903.31;5201237;28;20060;-71
2023/12/07 07:22:37;;;;;;;40.33;15.85;;;;;;;2.60;100.00;101894.00;5208711;28;20079;-71
2023/12/07 07:25:08;;;;;;;39.90;15.57;;;;;;;2.58;100.00;101888.81;5206612;28;20415;-71
2023/12/07 07:27:39;;;;;;;42.08;15.95;;;;;;;2.57;100.00;101888.91;5206711;28;20021;-71
2023/12/07 07:30:10;;;;;;;43.55;16.48;;;;;;;2.53;100.00;101877.63;5209305;28;20029;-71
2023/12/07 07:32:40;;;;;;;44.97;15.55;;;;;;;2.48;100.00;101881.50;5206664;28;20060;-71
2023/12/07 07:35:11;;;;;;;45.40;16.92;;;;;;;2.47;100.00;101885.94;5207655;28;20056;-71
2023/12/07 07:37:43;;;;;;;44.83;16.70;;;;;;;2.41;100.00;101886.31;5207122;28;20025;-71
2023/12/07 07:40:14;;;;;;;47.67;15.70;;;;;;;2.33;100.00;101883.22;5209512;28;20026;-71
2023/12/07 07:42:45;;;;;;;40.38;16.25;;;;;;;2.40;100.00;101891.66;5205492;28;20021;-71
2023/12/07 07:45:16;;;;;;;47.33;15.75;;;;;;;2.36;100.00;101895.41;5210249;28;20373;-71
2023/12/07 07:47:46;;;;;;;50.90;16.70;;;;;;;2.37;100.00;101891.84;5208473;28;20033;-71
2023/12/07 07:50:17;;;;;;;40.60;14.95;;;;;;;2.35;100.00;101894.56;5206069;28;20492;-70
2023/12/07 07:52:48;;;;;;;42.40;15.38;;;;;;;2.37;100.00;101902.44;5208368;28;20272;-71
2023/12/07 07:55:18;;;;;;;47.28;15.90;;;;;;;2.30;100.00;101900.13;5206109;28;20023;-71
2023/12/07 07:57:49;;;;;;;35.90;15.50;;;;;;;2.25;100.00;101898.69;5206339;28;20404;-71
2023/12/07 08:00:19;;;;;;;47.35;15.43;;;;;;;2.23;100.00;101906.72;5211321;28;20018;-70
2023/12/07 08:02:50;;;;;;;41.80;15.88;;;;;;;2.19;100.00;101913.13;5203468;28;20507;-71
2023/12/07 08:05:20;;;;;;;43.70;14.68;;;;;;;2.17;100.00;101922.13;5204985;28;20025;-71
2023/12/07 08:07:51;;;;;;;41.17;14.60;;;;;;;2.09;100.00;101911.94;5204401;28;20045;-71
2023/12/07 08:10:21;;;;;;;44.33;15.18;;;;;;;2.04;100.00;101901.59;5205398;28;20025;-71
2023/12/07 08:12:52;;;;;;;45.45;16.65;;;;;;;2.01;100.00;101895.66;5207801;28;20033;-71
2023/12/07 08:15:22;;;;;;;49.78;16.20;;;;;;;1.99;100.00;101897.50;5203740;28;20044;-71
2023/12/07 08:17:53;;;;;;;47.80;16.60;;;;;;;2.00;100.00;101888.63;5206417;28;20107;-71
2023/12/07 08:20:24;;;;;;;46.92;16.83;;;;;;;2.23;100.00;101885.53;5204206;28;20033;-71
2023/12/07 08:22:55;;;;;;;41.78;16.27;;;;;;;2.51;100.00;101878.66;5202715;28;20033;-71
2023/12/07 08:25:25;;;;;;;41.28;16.85;;;;;;;2.92;100.00;101883.34;5208643;28;20036;-72
2023/12/07 08:27:56;;;;;;;39.72;15.10;;;;;;;3.31;100.00;101874.72;5206718;28;20025;-71
2023/12/07 08:30:26;;;;;;;42.22;15.63;;;;;;;3.62;100.00;101876.38;5207176;28;20037;-71
2023/12/07 08:32:57;;;;;;;41.53;15.40;;;;;;;3.88;100.00;101880.03;5206049;28;20017;-72
2023/12/07 08:35:27;;;;;;;34.80;14.20;;;;;;;4.15;100.00;101883.53;5208842;28;20041;-72
2023/12/07 08:37:58;;;;;;;28.95;14.23;;;;;;;4.30;100.00;101883.50;5205214;28;20028;-72
2023/12/07 08:40:28;;;;;;;34.53;13.15;;;;;;;4.56;100.00;101892.41;5208662;28;20420;-72
2023/12/07 08:42:59;;;;;;;30.50;13.77;;;;;;;4.80;100.00;101888.09;5207644;28;20126;-72
2023/12/07 08:45:29;;;;;;;31.80;14.25;;;;;;;4.97;100.00;101871.03;5208438;28;20033;-72
2023/12/07 08:48:00;;;;;;;34.42;13.02;;;;;;;5.16;100.00;101866.13;5209310;28;20076;-72
2023/12/07 08:50:30;;;;;;;30.23;13.35;;;;;;;5.02;100.00;101873.34;5210792;28;20487;-72
2023/12/07 08:53:01;;;;;;;30.50;13.75;;;;;;;4.94;100.00;101868.56;5206412;28;20025;-72
2023/12/07 08:55:31;;;;;;;29.05;13.57;;;;;;;4.90;100.00;101873.22;5212555;28;20025;-72
2023/12/07 08:58:04;;;;;;;32.10;13.70;;;;;;;4.97;100.00;101871.03;5208462;28;20041;-72
2023/12/07 09:00:34;;;;;;;29.83;13.95;;;;;;;5.06;100.00;101874.84;5205583;28;20028;-72
2023/12/07 09:03:05;;;;;;;27.75;11.73;;;;;;;5.15;100.00;101877.72;5205087;28;20018;-72
2023/12/07 09:05:35;;;;;;;28.05;12.80;;;;;;;5.30;100.00;101870.47;5207316;28;20024;-72
2023/12/07 09:08:06;;;;;;;29.92;12.80;;;;;;;5.37;100.00;101868.22;5208130;28;20021;-72
2023/12/07 09:10:37;;;;;;;24.85;12.50;;;;;;;5.47;100.00;101874.59;5204344;28;20022;-72
2023/12/07 09:13:07;;;;;;;34.53;12.90;;;;;;;5.58;100.00;101855.25;5207208;28;20074;-72
2023/12/07 09:15:38;;;;;;;24.48;12.73;;;;;;;5.77;100.00;101854.75;5204611;28;20391;-72
2023/12/07 09:18:08;;;;;;;23.15;11.25;;;;;;;5.81;100.00;101849.09;5203155;28;20032;-72
2023/12/07 09:20:45;;;;;;;23.65;12.10;;;;;;;5.83;100.00;101846.34;5207018;28;20056;-72
2023/12/07 09:23:16;;;;;;;23.25;11.25;;;;;;;5.73;100.00;101840.84;5201741;28;20484;-72
2023/12/07 09:25:47;;;;;;;22.35;11.75;;;;;;;5.88;100.00;101846.88;5206968;28;20074;-72
2023/12/07 09:28:17;;;;;;;26.00;11.65;;;;;;;5.78;100.00;101841.34;5207067;28;20485;-72
2023/12/07 09:30:48;;;;;;;26.33;11.63;;;;;;;5.58;100.00;101845.44;5209077;28;20087;-71
2023/12/07 09:33:19;;;;;;;24.38;11.55;;;;;;;5.19;100.00;101833.13;5206150;28;20106;-71
2023/12/07 09:35:49;;;;;;;29.42;11.60;;;;;;;4.98;100.00;101839.97;5206182;28;20029;-72
2023/12/07 09:38:19;;;;;;;27.60;11.82;;;;;;;4.73;100.00;101843.44;5209751;28;20026;-72
2023/12/07 09:40:56;;;;;;;26.10;11.30;;;;;;;4.65;100.00;101835.97;5207541;28;20029;-72
2023/12/07 09:43:27;;;;;;;31.38;12.77;;;;;;;4.69;100.00;101821.53;5205779;28;20120;-71
2023/12/07 09:45:57;;;;;;;27.75;12.38;;;;;;;4.63;100.00;101836.09;5207622;28;20112;-72
2023/12/07 09:48:28;;;;;;;31.27;12.23;;;;;;;4.71;100.00;101832.91;5207646;28;20029;-72
2023/12/07 09:51:01;;;;;;;36.95;13.68;;;;;;;4.82;100.00;101838.34;5207515;28;20270;-72
2023/12/07 09:53:34;;;;;;;28.55;12.15;;;;;;;4.91;100.00;101829.72;5206945;28;20442;-72
2023/12/07 09:56:05;;;;;;;26.05;11.55;;;;;;;4.90;100.00;101832.50;5204865;28;20427;-71
2023/12/07 09:58:35;;;;;;;26.25;11.73;;;;;;;4.95;100.00;101822.41;5199369;28;20331;-72
2023/12/07 10:01:06;;;;;;;31.75;11.88;;;;;;;4.97;100.00;101814.28;5208298;28;20116;-71
2023/12/07 10:03:36;;;;;;;31.60;11.77;;;;;;;4.98;100.00;101813.38;5204670;28;20037;-71
2023/12/07 10:06:07;;;;;;;25.05;10.85;;;;;;;5.07;100.00;101805.59;5202893;28;20040;-72
2023/12/07 10:08:37;;;;;;;28.73;12.60;;;;;;;5.23;100.00;101794.72;5201710;28;20036;-72
2023/12/07 10:11:10;;;;;;;29.85;11.63;;;;;;;5.31;100.00;101783.53;5208073;28;20100;-72
2023/12/07 10:13:41;;;;;;;25.10;10.52;;;;;;;5.40;100.00;101767.75;5205643;28;20472;-72
2023/12/07 10:16:14;;;;;;;25.95;10.38;;;;;;;5.33;100.00;101769.16;5209649;28;20031;-72
2023/12/07 10:18:45;;;;;;;25.73;10.63;;;;;;;5.16;100.00;101765.03;5208367;28;20402;-72
2023/12/07 10:21:15;;;;;;;25.15;11.20;;;;;;;5.08;100.00;101761.22;5205640;28;20060;-72
2023/12/07 10:23:47;;;;;;;30.20;11.70;;;;;;;5.25;100.00;101747.56;5208447;28;20021;-72
2023/12/07 10:26:19;;;;;;;19.90;9.95;;;;;;;5.35;100.00;101751.25;5205729;28;20232;-72
2023/12/07 10:28:58;;;;;;;28.55;11.38;;;;;;;5.38;100.00;101750.22;5206824;28;20100;-72
2023/12/07 10:31:30;;;;;;;26.30;12.32;;;;;;;5.62;100.00;101740.44;5203794;28;20087;-72
2023/12/07 10:34:01;;;;;;;25.45;11.18;;;;;;;5.68;100.00;101745.31;5208882;28;20029;-72
2023/12/07 10:36:32;;;;;;;25.05;11.20;;;;;;;5.52;100.00;101742.06;5207444;28;20031;-72
2023/12/07 10:39:06;;;;;;;23.38;11.40;;;;;;;5.42;100.00;101743.69;5202935;28;20439;-72
2023/12/07 10:41:39;;;;;;;28.67;11.00;;;;;;;5.41;100.00;101745.50;5200061;28;20052;-72
2023/12/07 10:44:13;;;;;;;22.80;10.43;;;;;;;5.47;100.00;101738.88;5207018;28;20511;-72
2023/12/07 10:46:45;;;;;;;22.37;10.83;;;;;;;5.51;100.00;101745.69;5208444;28;20026;-72
2023/12/07 10:49:19;;;;;;;26.05;10.85;;;;;;;5.79;100.00;101735.69;5206206;28;20018;-72
2023/12/07 10:51:51;;;;;;;26.38;11.43;;;;;;;5.90;100.00;101733.06;5209362;28;20029;-72
2023/12/07 10:54:26;;;;;;;29.25;12.88;;;;;;;6.05;100.00;101733.78;5207312;28;20068;-72
2023/12/07 10:57:02;;;;;;;28.00;10.98;;;;;;;6.24;100.00;101720.75;5206512;28;20112;-72
2023/12/07 10:59:35;;;;;;;26.77;10.90;;;;;;;6.26;100.00;101717.97;5207432;28;20021;-72
2023/12/07 11:02:10;;;;;;;21.63;10.05;;;;;;;6.19;100.00;101709.59;5204573;28;20025;-72
2023/12/07 11:04:41;;;;;;;16.58;8.93;;;;;;;6.23;100.00;101701.25;5206630;28;20048;-72
2023/12/07 11:07:17;;;;;;;23.88;10.65;;;;;;;6.35;100.00;101701.28;5206369;28;20390;-72
2023/12/07 11:09:58;;;;;;;20.38;10.27;;;;;;;6.39;100.00;101689.41;5206468;28;20056;-72
2023/12/07 11:12:49;;;;;;;26.50;9.73;;;;;;;6.49;100.00;101679.75;5206508;28;20082;-72
2023/12/07 11:15:20;;;;;;;18.27;9.30;;;;;;;6.37;100.00;101683.34;5208763;28;20103;-72
2023/12/07 11:17:53;;;;;;;24.60;10.00;;;;;;;6.47;100.00;101668.31;5207588;28;20488;-72
2023/12/07 11:20:41;;;;;;;21.50;9.40;;;;;;;6.48;100.00;101662.91;5208707;28;20033;-72
2023/12/07 11:23:16;;;;;;;25.63;11.10;;;;;;;6.28;100.00;101660.09;5205171;28;20025;-72
2023/12/07 11:25:48;;;;;;;28.53;10.60;;;;;;;6.35;100.00;101658.63;5209579;28;20029;-72